Time;durP1;ratioP1;P1;durP2;ratioP2;P2;SDS_P1;SDS_P2;PMS_P1;PMS_P2;Temp;Humidity;BMP_temperature;BMP_pressure;BME280_temperature;BME280_humidity;BME280_pressure;Samples;Min_cycle;Max_cycle;Signal;HPM_P1;HPM_P2
2021/09/07 00:01:20;;;;;;;13.00;9.30;;;18.70;73.10;;;;;;5072990;28;20059;-79
2021/09/07 00:03:46;;;;;;;17.55;10.63;;;18.70;73.20;;;;;;5073340;28;20017;-79
2021/09/07 00:06:14;;;;;;;14.20;9.77;;;18.70;73.30;;;;;;5082319;28;20028;-79
2021/09/07 00:08:39;;;;;;;14.10;9.13;;;18.60;73.20;;;;;;5091516;28;20032;-78
2021/09/07 00:11:05;;;;;;;13.25;9.18;;;18.70;73.10;;;;;;5084108;28;20453;-79
2021/09/07 00:13:31;;;;;;;15.77;9.93;;;18.70;73.10;;;;;;5072671;28;20074;-80
2021/09/07 00:15:56;;;;;;;14.55;9.55;;;18.70;73.20;;;;;;5072731;28;20033;-79
2021/09/07 00:18:23;;;;;;;15.30;11.02;;;18.80;73.00;;;;;;5074108;28;20453;-79
2021/09/07 00:20:48;;;;;;;17.45;9.75;;;18.80;73.10;;;;;;5072727;28;20051;-79
2021/09/07 00:23:14;;;;;;;13.55;9.40;;;18.80;73.10;;;;;;5073267;28;20453;-80
2021/09/07 00:25:39;;;;;;;14.10;9.57;;;18.80;73.10;;;;;;5073867;28;20074;-79
2021/09/07 00:28:05;;;;;;;15.23;9.95;;;18.80;73.80;;;;;;5072373;28;20055;-79
2021/09/07 00:30:31;;;;;;;18.33;9.30;;;18.90;73.30;;;;;;5072121;28;20017;-79
2021/09/07 00:32:56;;;;;;;14.70;9.15;;;18.90;73.60;;;;;;5072224;28;20487;-78
2021/09/07 00:35:24;;;;;;;13.55;9.00;;;18.90;73.60;;;;;;5072293;28;20036;-79
2021/09/07 00:37:50;;;;;;;16.42;10.98;;;18.90;73.60;;;;;;5072626;28;20035;-80
2021/09/07 00:40:15;;;;;;;16.70;10.50;;;18.90;73.30;;;;;;5074318;28;20016;-79
2021/09/07 00:42:41;;;;;;;15.40;10.18;;;18.90;73.40;;;;;;5071841;28;20066;-79
2021/09/07 00:45:10;;;;;;;19.63;11.30;;;18.90;73.40;;;;;;5072421;28;20025;-79
2021/09/07 00:47:36;;;;;;;15.27;9.90;;;18.90;73.80;;;;;;5072516;28;20067;-79
2021/09/07 00:50:02;;;;;;;17.48;11.52;;;19.00;73.10;;;;;;5072793;28;20473;-80
2021/09/07 00:52:28;;;;;;;15.90;11.15;;;19.00;73.00;;;;;;5072635;28;20094;-80
2021/09/07 00:54:56;;;;;;;19.02;11.63;;;19.00;73.10;;;;;;5072320;28;20063;-80
2021/09/07 00:57:24;;;;;;;15.40;10.90;;;19.00;73.20;;;;;;5072839;28;20085;-80
2021/09/07 00:59:51;;;;;;;16.58;11.10;;;19.00;73.20;;;;;;5072528;28;20021;-79
2021/09/07 01:02:17;;;;;;;15.80;10.52;;;19.00;73.30;;;;;;5073022;28;20116;-79
2021/09/07 01:04:42;;;;;;;16.23;10.93;;;19.00;73.40;;;;;;5072154;28;20087;-79
2021/09/07 01:07:08;;;;;;;17.23;11.43;;;19.10;73.60;;;;;;5072602;28;20094;-78
2021/09/07 01:09:41;;;;;;;16.98;11.20;;;19.00;74.40;;;;;;5072288;28;20031;-80
2021/09/07 01:12:10;;;;;;;16.88;11.43;;;19.10;73.70;;;;;;5071760;28;20019;-79
2021/09/07 01:14:38;;;;;;;15.23;10.33;;;19.10;73.80;;;;;;5072807;28;20532;-80
2021/09/07 01:17:18;;;;;;;16.67;11.95;;;19.10;74.00;;;;;;5071698;28;20392;-79
2021/09/07 01:19:46;;;;;;;16.85;11.18;;;19.00;73.80;;;;;;5071675;28;20542;-79
2021/09/07 01:22:16;;;;;;;17.85;11.77;;;19.10;74.00;;;;;;5072049;28;20071;-80
2021/09/07 01:24:42;;;;;;;16.40;11.07;;;19.10;74.00;;;;;;5071654;28;20197;-80
2021/09/07 01:27:08;;;;;;;17.20;11.73;;;19.10;74.60;;;;;;5071700;28;20464;-79
2021/09/07 01:29:36;;;;;;;18.77;12.52;;;19.10;73.90;;;;;;5071724;28;20059;-78
2021/09/07 01:32:04;;;;;;;18.38;12.82;;;19.10;74.20;;;;;;5072016;28;20469;-79
2021/09/07 01:34:30;;;;;;;16.80;12.35;;;19.10;74.10;;;;;;5071737;28;20029;-79
2021/09/07 01:36:57;;;;;;;18.55;11.93;;;19.00;73.90;;;;;;5073616;28;20033;-79
2021/09/07 01:39:23;;;;;;;18.45;12.68;;;19.10;74.00;;;;;;5074059;28;20017;-79
2021/09/07 01:41:50;;;;;;;17.20;12.20;;;19.00;73.80;;;;;;5071501;28;20056;-79
2021/09/07 01:44:17;;;;;;;16.20;10.52;;;19.00;73.50;;;;;;5071740;28;20033;-80
2021/09/07 01:46:42;;;;;;;19.80;12.00;;;19.00;73.20;;;;;;5072110;28;20386;-79
2021/09/07 01:49:11;;;;;;;15.93;11.07;;;19.00;73.50;;;;;;5074450;28;20013;-79
2021/09/07 01:51:41;;;;;;;16.48;11.38;;;18.90;73.60;;;;;;5076466;28;20024;-79
2021/09/07 01:54:08;;;;;;;19.80;11.52;;;18.90;74.50;;;;;;5074478;28;20031;-80
2021/09/07 01:56:35;;;;;;;21.83;12.25;;;18.90;74.00;;;;;;5071453;28;20032;-80
2021/09/07 01:59:01;;;;;;;18.58;12.13;;;18.90;74.30;;;;;;5071440;28;20021;-80
2021/09/07 02:01:27;;;;;;;17.60;11.80;;;18.80;74.20;;;;;;5072215;28;20062;-80
2021/09/07 02:03:52;;;;;;;19.92;12.10;;;18.80;74.40;;;;;;5076122;28;20021;-80
2021/09/07 02:06:18;;;;;;;19.65;12.55;;;18.70;74.60;;;;;;5079982;28;20055;-80
2021/09/07 02:08:43;;;;;;;19.38;11.88;;;18.70;74.70;;;;;;5076176;28;20421;-79
2021/09/07 02:11:09;;;;;;;19.95;12.10;;;18.70;75.00;;;;;;5076001;28;20098;-79
2021/09/07 02:13:35;;;;;;;19.23;12.77;;;18.70;75.20;;;;;;5079583;28;20031;-79
2021/09/07 02:16:01;;;;;;;18.00;11.90;;;18.70;75.30;;;;;;5080975;28;20413;-79
2021/09/07 02:18:26;;;;;;;18.42;11.88;;;18.70;75.40;;;;;;5075070;28;20472;-79
2021/09/07 02:20:52;;;;;;;18.05;11.55;;;18.70;75.50;;;;;;5074693;28;20029;-79
2021/09/07 02:23:18;;;;;;;20.67;12.35;;;18.70;75.50;;;;;;5074731;28;20125;-78
2021/09/07 02:25:43;;;;;;;17.48;11.48;;;18.70;75.40;;;;;;5074444;28;20385;-80
2021/09/07 02:28:09;;;;;;;18.02;11.80;;;18.70;76.30;;;;;;5075808;28;20044;-79
2021/09/07 02:30:35;;;;;;;16.48;11.70;;;18.70;75.70;;;;;;5075458;28;20052;-79
2021/09/07 02:33:00;;;;;;;17.73;11.70;;;18.80;75.60;;;;;;5076234;28;20029;-79
2021/09/07 02:35:27;;;;;;;18.40;12.65;;;18.70;75.20;;;;;;5074433;28;20035;-79
2021/09/07 02:37:53;;;;;;;17.83;12.23;;;18.80;75.40;;;;;;5074290;28;20052;-79
2021/09/07 02:40:19;;;;;;;18.65;12.23;;;18.70;75.60;;;;;;5076006;28;20032;-79
2021/09/07 02:42:45;;;;;;;19.50;13.30;;;18.70;75.40;;;;;;5074215;28;20025;-80
2021/09/07 02:45:10;;;;;;;17.48;12.52;;;18.80;75.50;;;;;;5074273;28;20035;-79
2021/09/07 02:47:40;;;;;;;19.55;12.50;;;18.70;75.10;;;;;;5074054;28;20024;-79
2021/09/07 02:50:08;;;;;;;18.27;12.25;;;18.70;75.70;;;;;;5074553;28;20024;-79
2021/09/07 02:52:33;;;;;;;18.77;12.60;;;18.70;75.70;;;;;;5074314;28;20020;-78
2021/09/07 02:54:59;;;;;;;19.70;12.27;;;18.70;75.80;;;;;;5073773;28;20023;-79
2021/09/07 02:57:25;;;;;;;21.23;12.63;;;18.70;75.70;;;;;;5073946;28;20036;-80
2021/09/07 02:59:50;;;;;;;19.70;13.52;;;18.70;75.70;;;;;;5073798;28;20055;-80
2021/09/07 03:02:16;;;;;;;16.45;12.25;;;18.70;75.70;;;;;;5074130;28;20024;-78
2021/09/07 03:04:41;;;;;;;18.63;13.00;;;18.70;75.60;;;;;;5073468;28;20488;-78
2021/09/07 03:07:07;;;;;;;22.48;14.02;;;18.70;75.50;;;;;;5074086;28;20020;-79
2021/09/07 03:09:32;;;;;;;17.23;12.50;;;18.70;75.60;;;;;;5073930;28;20373;-80
2021/09/07 03:11:58;;;;;;;20.65;14.00;;;18.70;75.50;;;;;;5074013;28;20105;-80
2021/09/07 03:14:24;;;;;;;21.92;13.25;;;18.70;75.70;;;;;;5074297;28;20032;-79
2021/09/07 03:16:49;;;;;;;20.52;12.90;;;18.70;75.60;;;;;;5073242;28;20040;-78
2021/09/07 03:19:15;;;;;;;19.20;13.07;;;18.70;75.90;;;;;;5074496;28;20036;-80
2021/09/07 03:21:41;;;;;;;19.75;13.40;;;18.60;75.90;;;;;;5073770;28;20021;-80
2021/09/07 03:24:07;;;;;;;18.58;13.05;;;18.60;76.20;;;;;;5075511;28;20020;-80
2021/09/07 03:26:32;;;;;;;18.92;12.98;;;18.60;76.10;;;;;;5073939;28;20376;-79
2021/09/07 03:28:58;;;;;;;22.92;13.65;;;18.60;76.20;;;;;;5074152;28;20086;-79
2021/09/07 03:31:24;;;;;;;20.13;12.88;;;18.60;76.30;;;;;;5074186;28;20021;-79
2021/09/07 03:33:49;;;;;;;24.33;15.20;;;18.60;76.30;;;;;;5073959;28;20020;-79
2021/09/07 03:36:15;;;;;;;20.95;14.38;;;18.60;76.30;;;;;;5073951;28;20052;-79
2021/09/07 03:38:41;;;;;;;22.80;14.75;;;18.60;76.10;;;;;;5077432;28;20461;-79
2021/09/07 03:41:06;;;;;;;20.20;13.85;;;18.60;76.40;;;;;;5079903;28;20025;-79
2021/09/07 03:43:32;;;;;;;23.58;14.30;;;18.50;76.40;;;;;;5078212;28;20111;-79
2021/09/07 03:45:57;;;;;;;21.20;13.85;;;18.50;76.40;;;;;;5073626;28;20123;-79
2021/09/07 03:48:23;;;;;;;20.77;14.52;;;18.50;76.40;;;;;;5073416;28;20024;-79
2021/09/07 03:50:49;;;;;;;21.17;14.60;;;18.50;76.50;;;;;;5073151;28;20064;-79
2021/09/07 03:53:14;;;;;;;21.85;14.60;;;18.50;76.30;;;;;;5073334;28;20357;-79
2021/09/07 03:55:40;;;;;;;21.25;14.30;;;18.50;76.30;;;;;;5073196;28;20033;-79
2021/09/07 03:58:06;;;;;;;25.45;15.60;;;18.40;76.50;;;;;;5073414;28;20028;-79
2021/09/07 04:00:31;;;;;;;27.10;17.25;;;18.40;76.70;;;;;;5072961;28;20024;-79
2021/09/07 04:02:57;;;;;;;23.38;15.93;;;18.40;76.80;;;;;;5046424;28;20025;-80
2021/09/07 04:05:22;;;;;;;24.58;16.42;;;18.30;76.80;;;;;;5041265;28;20018;-80
2021/09/07 04:07:49;;;;;;;25.70;16.02;;;18.30;76.90;;;;;;5040911;28;20453;-80
2021/09/07 04:10:14;;;;;;;24.67;15.60;;;18.30;76.90;;;;;;5047942;28;20048;-80
2021/09/07 04:12:40;;;;;;;23.55;16.00;;;18.30;77.00;;;;;;5033072;28;20455;-80
2021/09/07 04:15:06;;;;;;;25.85;16.95;;;18.20;76.90;;;;;;5033225;28;20028;-80
2021/09/07 04:17:31;;;;;;;25.42;16.95;;;18.20;77.20;;;;;;5033438;28;20021;-79
2021/09/07 04:19:57;;;;;;;24.25;16.48;;;18.10;77.50;;;;;;5045315;28;20001;-79
2021/09/07 04:22:23;;;;;;;27.77;18.00;;;18.10;77.60;;;;;;5036548;28;20022;-79
2021/09/07 04:24:48;;;;;;;22.95;16.55;;;18.00;78.10;;;;;;5032706;28;20477;-79
2021/09/07 04:27:14;;;;;;;25.20;18.20;;;17.90;77.60;;;;;;5035293;28;20379;-80
2021/09/07 04:29:43;;;;;;;28.23;17.83;;;17.90;77.90;;;;;;5033175;28;20029;-79
2021/09/07 04:32:08;;;;;;;27.35;18.50;;;17.90;78.20;;;;;;5034149;28;20068;-78
2021/09/07 04:34:34;;;;;;;26.45;18.25;;;17.90;78.60;;;;;;5034126;28;20022;-78
2021/09/07 04:37:00;;;;;;;26.80;17.15;;;17.80;78.80;;;;;;5033978;28;20474;-78
2021/09/07 04:39:25;;;;;;;30.85;20.98;;;17.80;78.70;;;;;;5034727;28;20022;-79
2021/09/07 04:41:51;;;;;;;28.23;18.83;;;17.70;78.60;;;;;;5033768;28;20045;-79
2021/09/07 04:44:20;;;;;;;30.48;19.13;;;17.70;78.60;;;;;;5035866;28;20057;-80
2021/09/07 04:46:45;;;;;;;28.33;18.25;;;17.70;78.70;;;;;;5039195;28;20040;-80
2021/09/07 04:49:11;;;;;;;25.35;17.90;;;17.60;78.90;;;;;;5034600;28;20017;-80
2021/09/07 04:51:36;;;;;;;26.75;18.88;;;17.60;79.00;;;;;;5032404;28;20079;-79
2021/09/07 04:54:02;;;;;;;27.35;17.08;;;17.60;79.00;;;;;;5033690;28;20029;-80
2021/09/07 04:56:27;;;;;;;26.75;18.05;;;17.50;78.90;;;;;;5031916;28;20431;-79
2021/09/07 04:58:53;;;;;;;27.73;18.55;;;17.50;78.90;;;;;;5032928;28;20030;-79
2021/09/07 05:01:19;;;;;;;27.42;17.65;;;17.60;78.80;;;;;;5031682;28;20028;-79
2021/09/07 05:03:44;;;;;;;25.80;17.17;;;17.50;78.80;;;;;;5031731;28;20032;-81
2021/09/07 05:06:10;;;;;;;27.25;17.95;;;17.50;78.90;;;;;;5032012;28;20310;-80
2021/09/07 05:08:36;;;;;;;28.65;18.85;;;17.50;79.10;;;;;;5032107;28;20101;-79
2021/09/07 05:11:01;;;;;;;28.20;18.50;;;17.50;79.10;;;;;;5031375;28;20061;-80
2021/09/07 05:13:27;;;;;;;23.98;17.13;;;17.50;79.30;;;;;;5032416;28;20025;-80
2021/09/07 05:15:52;;;;;;;27.40;17.75;;;17.50;79.30;;;;;;5031702;28;20029;-80
2021/09/07 05:18:18;;;;;;;24.10;16.42;;;17.50;79.40;;;;;;5032549;28;20381;-80
2021/09/07 05:20:44;;;;;;;26.98;18.25;;;17.50;79.40;;;;;;5033479;28;20047;-80
2021/09/07 05:23:09;;;;;;;24.40;18.45;;;17.50;79.40;;;;;;5032565;28;20033;-80
2021/09/07 05:25:35;;;;;;;24.58;17.17;;;17.60;79.60;;;;;;5032875;28;20029;-80
2021/09/07 05:28:01;;;;;;;30.08;18.17;;;17.60;79.50;;;;;;5034048;28;20159;-79
2021/09/07 05:30:26;;;;;;;29.58;17.80;;;17.60;79.20;;;;;;5036768;28;20466;-78
2021/09/07 05:32:52;;;;;;;29.45;19.33;;;17.60;79.00;;;;;;5038983;28;20030;-79
2021/09/07 05:35:18;;;;;;;27.92;18.58;;;17.70;79.10;;;;;;5033214;28;20029;-80
2021/09/07 05:37:43;;;;;;;28.75;18.00;;;17.70;78.80;;;;;;5031599;28;20108;-79
2021/09/07 05:40:12;;;;;;;28.27;18.17;;;17.70;78.10;;;;;;5033582;28;20021;-80
2021/09/07 05:42:41;;;;;;;27.35;18.42;;;17.80;78.40;;;;;;5039363;28;20550;-79
2021/09/07 05:45:08;;;;;;;26.98;17.77;;;17.80;78.40;;;;;;5038712;28;20026;-80
2021/09/07 05:47:34;;;;;;;26.40;19.20;;;17.80;78.20;;;;;;5038428;28;20033;-80
2021/09/07 05:49:59;;;;;;;26.00;17.50;;;17.80;77.90;;;;;;5038254;28;20385;-80
2021/09/07 05:52:25;;;;;;;29.15;18.13;;;17.90;77.80;;;;;;5039479;28;20526;-80
2021/09/07 05:54:50;;;;;;;29.50;19.02;;;17.90;77.60;;;;;;5037877;28;20025;-80
2021/09/07 05:57:16;;;;;;;29.63;18.50;;;17.90;77.70;;;;;;5038781;28;20665;-80
2021/09/07 05:59:41;;;;;;;28.73;18.23;;;17.90;77.90;;;;;;5039386;28;20115;-80
2021/09/07 06:02:07;;;;;;;26.63;18.42;;;17.90;77.80;;;;;;5039288;28;20087;-80
2021/09/07 06:04:33;;;;;;;30.67;18.10;;;18.00;78.00;;;;;;5039454;28;20551;-80
2021/09/07 06:06:58;;;;;;;29.33;16.35;;;18.00;77.80;;;;;;5038822;28;20025;-81
2021/09/07 06:09:24;;;;;;;29.17;17.88;;;18.00;77.90;;;;;;5040680;28;20405;-79
2021/09/07 06:11:49;;;;;;;30.02;18.98;;;18.10;78.10;;;;;;5037948;28;20079;-80
2021/09/07 06:14:15;;;;;;;30.75;20.08;;;18.10;77.90;;;;;;5038558;28;20108;-80
2021/09/07 06:16:41;;;;;;;27.02;19.65;;;18.10;77.60;;;;;;5037285;28;20038;-80
2021/09/07 06:19:06;;;;;;;31.05;19.70;;;18.30;77.40;;;;;;5038132;28;20033;-79
2021/09/07 06:21:32;;;;;;;31.05;20.15;;;18.40;77.30;;;;;;5038502;28;20375;-79
2021/09/07 06:23:58;;;;;;;29.05;20.48;;;18.50;76.60;;;;;;5040495;28;20093;-79
2021/09/07 06:26:24;;;;;;;28.75;19.40;;;18.60;76.20;;;;;;5057582;28;20359;-79
2021/09/07 06:28:50;;;;;;;31.63;20.00;;;18.80;75.70;;;;;;5042243;28;20123;-79
2021/09/07 06:31:15;;;;;;;28.55;19.90;;;19.00;75.60;;;;;;5038372;28;20370;-80
2021/09/07 06:33:41;;;;;;;27.02;18.92;;;19.10;75.00;;;;;;5037902;28;20366;-80
2021/09/07 06:36:06;;;;;;;28.67;19.83;;;19.20;74.40;;;;;;5037937;28;20033;-80
2021/09/07 06:38:32;;;;;;;30.17;20.48;;;19.40;74.20;;;;;;5037913;28;20373;-80
2021/09/07 06:40:57;;;;;;;29.42;19.13;;;19.40;73.80;;;;;;5037518;28;20033;-80
2021/09/07 06:43:23;;;;;;;54.22;20.25;;;19.50;73.30;;;;;;5037725;28;20025;-80
2021/09/07 06:45:49;;;;;;;56.75;22.42;;;19.60;73.00;;;;;;5038972;28;20238;-81
2021/09/07 06:48:14;;;;;;;26.45;18.38;;;19.70;73.30;;;;;;5037455;28;20013;-81
2021/09/07 06:50:40;;;;;;;32.42;20.27;;;19.80;73.10;;;;;;5037682;28;20025;-80
2021/09/07 06:53:06;;;;;;;32.38;19.35;;;19.90;73.20;;;;;;5033617;28;20073;-79
2021/09/07 06:55:31;;;;;;;25.80;19.10;;;19.90;72.70;;;;;;5034083;28;20030;-79
2021/09/07 06:57:57;;;;;;;17.67;12.20;;;20.00;73.10;;;;;;5034066;28;20026;-80
2021/09/07 07:00:23;;;;;;;10.57;6.30;;;20.10;71.40;;;;;;5034111;28;20017;-81
2021/09/07 07:02:49;;;;;;;8.80;5.85;;;20.20;70.50;;;;;;5034244;28;20013;-80
2021/09/07 07:05:15;;;;;;;21.40;13.48;;;20.20;69.90;;;;;;5034500;28;20021;-79
2021/09/07 07:07:41;;;;;;;28.52;19.08;;;20.30;69.80;;;;;;5034921;28;20033;-81
2021/09/07 07:10:06;;;;;;;31.70;20.80;;;20.30;70.00;;;;;;5035302;28;20025;-81
2021/09/07 07:12:32;;;;;;;37.45;23.05;;;20.30;69.80;;;;;;5034992;28;20466;-81
2021/09/07 07:14:58;;;;;;;27.15;18.23;;;20.30;69.90;;;;;;5035618;28;20040;-80
2021/09/07 07:17:23;;;;;;;29.63;19.90;;;20.40;70.10;;;;;;5038137;28;20394;-80
2021/09/07 07:19:51;;;;;;;25.92;17.13;;;20.50;70.30;;;;;;5044224;28;20045;-79
2021/09/07 07:22:16;;;;;;;28.02;18.92;;;20.50;70.30;;;;;;5048661;28;20021;-80
2021/09/07 07:24:42;;;;;;;30.38;21.92;;;20.60;70.20;;;;;;5043614;28;20036;-80
2021/09/07 07:27:08;;;;;;;27.85;20.05;;;20.60;70.40;;;;;;5039893;28;20493;-80
2021/09/07 07:29:33;;;;;;;28.88;20.73;;;20.60;70.40;;;;;;5037550;28;20026;-81
2021/09/07 07:31:59;;;;;;;30.15;20.02;;;20.70;70.40;;;;;;5034203;28;20149;-81
2021/09/07 07:34:24;;;;;;;35.92;23.83;;;20.70;70.60;;;;;;5033926;28;20027;-81
2021/09/07 07:36:54;;;;;;;29.80;21.75;;;20.80;71.00;;;;;;5033457;28;20124;-80
2021/09/07 07:39:19;;;;;;;28.90;20.30;;;20.80;71.60;;;;;;5033263;28;20033;-80
2021/09/07 07:41:45;;;;;;;32.45;22.20;;;20.90;70.80;;;;;;5032975;28;20291;-81
2021/09/07 07:44:10;;;;;;;30.17;21.08;;;21.00;70.80;;;;;;5034071;28;20108;-81
2021/09/07 07:46:36;;;;;;;29.65;20.90;;;21.10;70.90;;;;;;5033885;28;20026;-79
2021/09/07 07:49:03;;;;;;;25.95;17.83;;;21.10;70.20;;;;;;5033575;28;20158;-80
2021/09/07 07:51:29;;;;;;;27.00;19.08;;;21.20;70.10;;;;;;5033132;28;20017;-81
2021/09/07 07:53:54;;;;;;;22.55;15.90;;;21.40;69.90;;;;;;5034656;28;20081;-80
2021/09/07 07:56:20;;;;;;;26.00;19.15;;;21.50;69.30;;;;;;5034543;28;20034;-80
2021/09/07 07:58:46;;;;;;;29.20;19.63;;;21.60;69.20;;;;;;5038032;28;20032;-80
2021/09/07 08:01:11;;;;;;;31.98;22.00;;;21.80;68.90;;;;;;5033647;28;20029;-80
2021/09/07 08:03:37;;;;;;;27.88;20.55;;;22.00;68.60;;;;;;5033542;28;20237;-80
2021/09/07 08:06:03;;;;;;;35.25;23.65;;;22.00;67.70;;;;;;5034162;28;20033;-81
2021/09/07 08:08:28;;;;;;;36.50;22.25;;;22.10;67.10;;;;;;5033909;28;20029;-79
2021/09/07 08:10:54;;;;;;;14.02;9.30;;;22.20;67.30;;;;;;5034464;28;20115;-80
2021/09/07 08:13:19;;;;;;;13.55;8.25;;;22.30;65.90;;;;;;5032791;28;20029;-80
2021/09/07 08:15:45;;;;;;;19.70;13.05;;;22.30;65.80;;;;;;5032988;28;20021;-80
2021/09/07 08:18:11;;;;;;;33.92;22.83;;;22.40;65.70;;;;;;5032875;28;20022;-80
2021/09/07 08:20:36;;;;;;;36.78;23.67;;;22.60;65.70;;;;;;5034001;28;20029;-81
2021/09/07 08:23:03;;;;;;;31.60;23.33;;;22.70;65.50;;;;;;5033657;28;20048;-81
2021/09/07 08:25:28;;;;;;;33.50;24.58;;;22.80;64.90;;;;;;5035027;28;20025;-81
2021/09/07 08:27:54;;;;;;;31.48;19.70;;;23.00;65.00;;;;;;5036348;28;20029;-81
2021/09/07 08:30:19;;;;;;;16.80;11.60;;;23.10;64.80;;;;;;5041566;28;20039;-79
2021/09/07 08:32:45;;;;;;;25.77;18.73;;;23.20;64.40;;;;;;5049020;28;20022;-79
2021/09/07 08:35:13;;;;;;;13.38;9.30;;;23.30;64.60;;;;;;5033571;28;20423;-79
2021/09/07 08:37:40;;;;;;;17.80;12.32;;;23.40;63.90;;;;;;5033303;28;20030;-79
2021/09/07 08:40:09;;;;;;;13.55;8.90;;;23.40;63.70;;;;;;5034394;28;20026;-80
2021/09/07 08:42:35;;;;;;;22.55;15.30;;;23.50;63.50;;;;;;5032808;28;20375;-79
2021/09/07 08:45:03;;;;;;;24.75;13.68;;;23.50;63.50;;;;;;5034354;28;20049;-79
2021/09/07 08:47:29;;;;;;;19.10;13.02;;;23.50;63.60;;;;;;5032972;28;20048;-79
2021/09/07 08:49:55;;;;;;;12.95;8.52;;;23.60;63.50;;;;;;5032458;28;20052;-79
2021/09/07 08:52:22;;;;;;;18.05;12.90;;;23.70;63.20;;;;;;5031906;28;20021;-78
2021/09/07 08:54:48;;;;;;;14.02;9.50;;;23.70;62.80;;;;;;5032979;28;20076;-79
2021/09/07 08:57:14;;;;;;;16.73;11.98;;;23.80;62.40;;;;;;5032786;28;20033;-79
2021/09/07 08:59:40;;;;;;;16.92;11.27;;;24.00;62.20;;;;;;5033804;28;20025;-79
2021/09/07 09:02:16;;;;;;;18.25;13.27;;;24.10;62.30;;;;;;5034034;28;20033;-77
2021/09/07 09:04:48;;;;;;;15.15;10.23;;;24.30;61.90;;;;;;5034327;28;20082;-80
2021/09/07 09:07:19;;;;;;;13.68;9.18;;;24.50;60.90;;;;;;5034543;28;20025;-79
2021/09/07 09:09:45;;;;;;;15.63;11.70;;;24.60;60.70;;;;;;5038560;28;20025;-79
2021/09/07 09:12:11;;;;;;;20.33;15.52;;;24.70;59.70;;;;;;5037508;28;20363;-78
2021/09/07 09:14:42;;;;;;;18.30;11.65;;;24.80;58.80;;;;;;5032110;28;20462;-78
2021/09/07 09:17:16;;;;;;;23.88;15.18;;;24.80;58.80;;;;;;5032542;28;20025;-78
2021/09/07 09:19:53;;;;;;;16.17;10.68;;;25.00;59.00;;;;;;5032333;28;20018;-79
2021/09/07 09:22:19;;;;;;;23.67;14.13;;;25.20;58.50;;;;;;5033030;28;20057;-78
2021/09/07 09:24:45;;;;;;;14.90;10.23;;;25.60;58.30;;;;;;5033010;28;20378;-78
2021/09/07 09:27:11;;;;;;;25.15;17.70;;;25.80;58.10;;;;;;5033552;28;20494;-79
2021/09/07 09:29:40;;;;;;;16.25;10.93;;;25.60;57.50;;;;;;5032731;28;20083;-79
2021/09/07 09:32:13;;;;;;;10.70;7.30;;;25.60;58.90;;;;;;5032540;28;20072;-79
2021/09/07 09:34:40;;;;;;;16.98;12.52;;;25.70;59.40;;;;;;5031793;28;20025;-78
2021/09/07 09:37:13;;;;;;;21.05;15.68;;;25.90;58.80;;;;;;5032081;28;20045;-79
2021/09/07 09:39:42;;;;;;;18.55;12.80;;;26.10;58.10;;;;;;5032744;28;20466;-79
2021/09/07 09:42:34;;;;;;;16.57;12.03;;;26.40;57.70;;;;;;5031863;28;20080;-78
2021/09/07 09:45:01;;;;;;;16.65;12.52;;;26.60;57.50;;;;;;5026517;28;20514;-78
2021/09/07 09:47:40;;;;;;;16.38;11.55;;;26.80;56.60;;;;;;5031929;28;20115;-79
2021/09/07 09:50:07;;;;;;;18.25;13.02;;;26.90;55.50;;;;;;5031312;28;20075;-78
2021/09/07 09:52:35;;;;;;;23.17;17.25;;;26.90;55.90;;;;;;5032102;28;20025;-78
2021/09/07 09:55:02;;;;;;;21.38;15.68;;;27.00;55.40;;;;;;5031538;28;20076;-78
2021/09/07 09:57:28;;;;;;;10.23;7.28;;;27.00;54.90;;;;;;5031722;28;20064;-78
2021/09/07 09:59:54;;;;;;;12.95;9.25;;;27.10;57.10;;;;;;5032988;28;20071;-79
2021/09/07 10:02:21;;;;;;;15.90;11.98;;;27.10;58.70;;;;;;5032557;28;20025;-78
2021/09/07 10:04:47;;;;;;;15.75;11.57;;;27.40;56.70;;;;;;5033045;28;20018;-78
2021/09/07 10:07:13;;;;;;;20.05;12.75;;;27.50;56.30;;;;;;5034784;28;20099;-78
2021/09/07 10:09:41;;;;;;;19.75;13.25;;;27.70;56.40;;;;;;5038577;28;20032;-79
2021/09/07 10:12:42;;;;;;;15.77;12.27;;;27.80;55.30;;;;;;5034096;28;20095;-78
2021/09/07 10:15:40;;;;;;;11.43;8.25;;;27.90;55.90;;;;;;5001506;28;20038;-79
2021/09/07 10:23:52;;;;;;;17.23;12.45;;;28.40;57.00;;;;;;5033792;28;20033;-79
2021/09/07 10:26:39;;;;;;;17.88;13.25;;;28.50;55.00;;;;;;5032451;28;20041;-78
2021/09/07 10:29:14;;;;;;;10.60;7.15;;;28.70;56.50;;;;;;5035413;28;20105;-79
2021/09/07 10:31:47;;;;;;;8.68;5.90;;;28.80;57.00;;;;;;5036259;28;20323;-79
2021/09/07 10:34:14;;;;;;;14.43;9.55;;;28.90;58.60;;;;;;5047755;28;20029;-79
2021/09/07 10:36:59;;;;;;;15.80;11.02;;;28.80;54.50;;;;;;5053340;28;20500;-78
2021/09/07 10:39:30;;;;;;;19.02;13.68;;;28.80;53.80;;;;;;5035786;28;20064;-78
2021/09/07 10:41:56;;;;;;;16.77;10.07;;;28.90;52.70;;;;;;5035474;28;20049;-78
2021/09/07 10:44:26;;;;;;;14.98;9.52;;;29.00;54.00;;;;;;5036696;28;20048;-78
2021/09/07 10:46:58;;;;;;;12.57;8.15;;;29.00;55.00;;;;;;5034792;28;20393;-77
2021/09/07 10:49:37;;;;;;;12.80;9.40;;;29.00;57.00;;;;;;5034746;28;20028;-78
2021/09/07 10:52:10;;;;;;;12.37;9.03;;;28.90;55.40;;;;;;5034605;28;20021;-78
2021/09/07 10:54:45;;;;;;;10.93;8.02;;;28.90;55.00;;;;;;5037114;28;20048;-77
2021/09/07 10:57:53;;;;;;;11.55;9.10;;;28.90;55.30;;;;;;5045242;28;20058;-78
2021/09/07 11:00:25;;;;;;;12.50;9.40;;;28.90;56.10;;;;;;5049653;28;20036;-78
2021/09/07 11:03:00;;;;;;;17.77;13.13;;;28.90;58.20;;;;;;5052419;28;20037;-77
2021/09/07 11:05:26;;;;;;;19.13;13.32;;;28.90;56.10;;;;;;5053927;28;20053;-78
2021/09/07 11:08:12;;;;;;;14.85;11.20;;;28.90;53.40;;;;;;5053782;28;20388;-78
2021/09/07 11:10:39;;;;;;;15.82;11.27;;;28.80;56.40;;;;;;5054957;28;20393;-78
2021/09/07 11:13:09;;;;;;;16.02;10.82;;;28.80;55.70;;;;;;5053796;28;20025;-78
2021/09/07 11:15:36;;;;;;;;;;;28.70;53.30;;;;;;5055502;28;20017;-78
2021/09/07 11:18:09;;;;;;;10.23;6.90;;;28.70;58.90;;;;;;5054292;28;20282;-79
2021/09/07 11:20:43;;;;;;;20.33;14.10;;;28.90;59.70;;;;;;5055189;28;20078;-78
2021/09/07 11:23:13;;;;;;;11.00;7.93;;;29.00;52.80;;;;;;5056160;28;20024;-78
2021/09/07 11:25:40;;;;;;;9.02;6.55;;;29.00;57.20;;;;;;5056246;28;20051;-79
2021/09/07 11:28:07;;;;;;;9.48;7.10;;;28.90;60.90;;;;;;5054015;28;20449;-77
2021/09/07 11:30:37;;;;;;;16.58;13.10;;;28.80;60.60;;;;;;5054511;28;20469;-80
2021/09/07 11:33:07;;;;;;;14.02;9.45;;;28.90;56.50;;;;;;5057081;28;20100;-78
2021/09/07 11:35:42;;;;;;;12.18;9.52;;;29.00;59.60;;;;;;5055429;28;20079;-78
2021/09/07 11:38:14;;;;;;;9.48;6.68;;;29.00;57.80;;;;;;5055065;28;20032;-78
2021/09/07 11:40:48;;;;;;;12.18;9.55;;;29.20;59.90;;;;;;5055905;28;20021;-78
2021/09/07 11:43:28;;;;;;;11.88;8.15;;;29.50;58.40;;;;;;5055821;28;20027;-78
2021/09/07 11:46:14;;;;;;;10.20;7.53;;;29.80;57.60;;;;;;5055437;28;20059;-79
2021/09/07 11:48:48;;;;;;;9.02;6.05;;;29.90;60.70;;;;;;5055547;28;20029;-78
2021/09/07 11:51:16;;;;;;;19.98;12.80;;;30.10;59.30;;;;;;5054389;28;20108;-78
2021/09/07 11:53:43;;;;;;;11.52;8.88;;;30.30;55.20;;;;;;5055488;28;20123;-78
2021/09/07 11:56:28;;;;;;;11.20;8.73;;;30.20;54.40;;;;;;5053831;28;20067;-78
2021/09/07 11:59:11;;;;;;;15.95;10.95;;;30.30;56.60;;;;;;5053781;28;20036;-77
2021/09/07 12:01:42;;;;;;;8.80;7.25;;;30.30;55.30;;;;;;5053968;28;20029;-77
2021/09/07 12:04:07;;;;;;;10.18;6.90;;;30.30;58.90;;;;;;5053746;28;20013;-80
2021/09/07 12:06:36;;;;;;;12.35;9.82;;;30.30;61.40;;;;;;5054853;28;20025;-79
2021/09/07 12:09:30;;;;;;;10.20;7.27;;;30.20;59.80;;;;;;5053675;28;20429;-77
2021/09/07 12:12:13;;;;;;;9.55;7.05;;;30.20;58.30;;;;;;5051477;28;20822;-78
2021/09/07 12:14:47;;;;;;;14.05;10.10;;;30.40;59.10;;;;;;5052848;28;20043;-78
2021/09/07 12:17:16;;;;;;;9.25;6.47;;;30.50;56.30;;;;;;5052437;28;20508;-77
2021/09/07 12:19:48;;;;;;;12.93;9.63;;;30.70;59.50;;;;;;5054958;28;20051;-78
2021/09/07 12:22:20;;;;;;;12.18;9.35;;;30.70;57.40;;;;;;5054556;28;20273;-77
2021/09/07 12:25:05;;;;;;;13.13;9.80;;;30.60;57.60;;;;;;5054578;28;20024;-78
2021/09/07 12:27:39;;;;;;;15.15;9.57;;;30.50;56.80;;;;;;5054847;28;20104;-78
2021/09/07 12:30:08;;;;;;;15.07;11.23;;;30.60;58.40;;;;;;5052654;28;20017;-78
2021/09/07 12:32:51;;;;;;;8.55;6.35;;;30.70;60.50;;;;;;5054596;28;20029;-78
2021/09/07 12:35:34;;;;;;;13.32;8.93;;;30.80;59.20;;;;;;5056184;28;20017;-78
2021/09/07 12:38:03;;;;;;;12.18;8.07;;;30.90;56.00;;;;;;5057233;28;20021;-77
2021/09/07 12:40:29;;;;;;;14.90;10.75;;;31.10;57.20;;;;;;5064008;28;20020;-77